Time;durP1;ratioP1;P1;durP2;ratioP2;P2;SDS_P1;SDS_P2;PMS_P1;PMS_P2;Temp;Humidity;BMP_temperature;BMP_pressure;BME280_temperature;BME280_humidity;BME280_pressure;Samples;Min_cycle;Max_cycle;Signal;HPM_P1;HPM_P2
2023/08/20 00:00:54;;;;;;;12.20;11.00;;;;;;;;;;110222;267;42849;-40
2023/08/20 00:03:54;;;;;;;12.40;11.20;;;;;;;;;;110219;267;44648;-40
2023/08/20 00:06:38;;;;;;;13.50;12.10;;;;;;;;;;110183;267;38679;-40
2023/08/20 00:09:16;;;;;;;12.70;11.60;;;;;;;;;;110209;267;39872;-40
2023/08/20 00:11:54;;;;;;;12.50;11.30;;;;;;;;;;110215;267;42520;-40
2023/08/20 00:15:05;;;;;;;12.70;11.40;;;;;;;;;;110224;267;42085;-39
2023/08/20 00:17:49;;;;;;;12.50;11.20;;;;;;;;;;110220;267;38710;-39
2023/08/20 00:20:40;;;;;;;12.80;11.60;;;;;;;;;;110219;267;39326;-39
2023/08/20 00:23:31;;;;;;;12.00;10.80;;;;;;;;;;110189;267;42860;-39
2023/08/20 00:26:10;;;;;;;13.00;11.60;;;;;;;;;;110044;267;175415;-39
2023/08/20 00:28:52;;;;;;;12.30;11.00;;;;;;;;;;110225;267;38832;-39
2023/08/20 00:31:38;;;;;;;12.70;11.60;;;;;;;;;;110203;267;39740;-39
2023/08/20 00:34:22;;;;;;;12.20;11.00;;;;;;;;;;110195;267;42797;-41
2023/08/20 00:37:02;;;;;;;12.50;11.40;;;;;;;;;;110193;267;42043;-40
2023/08/20 00:39:44;;;;;;;12.50;11.30;;;;;;;;;;110214;267;38664;-40
2023/08/20 00:42:28;;;;;;;12.20;11.10;;;;;;;;;;110209;267;39321;-39
2023/08/20 00:45:08;;;;;;;12.50;11.40;;;;;;;;;;110140;267;43004;-40
2023/08/20 00:47:47;;;;;;;11.80;10.80;;;;;;;;;;110196;267;42083;-39
2023/08/20 00:50:28;;;;;;;12.50;11.30;;;;;;;;;;110239;267;39813;-40
2023/08/20 00:53:07;;;;;;;12.30;11.20;;;;;;;;;;110222;267;39727;-40
2023/08/20 00:58:40;;;;;;;12.50;11.30;;;;;;;;;;110157;267;42308;-39
2023/08/20 01:01:20;;;;;;;12.60;11.40;;;;;;;;;;110244;267;38465;-40
2023/08/20 01:03:57;;;;;;;13.10;12.00;;;;;;;;;;110124;267;175447;-39
2023/08/20 01:06:48;;;;;;;13.20;11.90;;;;;;;;;;110166;267;43003;-39
2023/08/20 01:09:44;;;;;;;13.10;11.90;;;;;;;;;;110215;267;48696;-39
2023/08/20 01:12:25;;;;;;;13.50;12.20;;;;;;;;;;110211;267;38661;-38
2023/08/20 01:15:08;;;;;;;12.40;11.20;;;;;;;;;;110217;267;39314;-37
2023/08/20 01:17:49;;;;;;;12.80;11.60;;;;;;;;;;110191;267;43970;-37
2023/08/20 01:20:31;;;;;;;13.00;11.60;;;;;;;;;;110187;267;42107;-37
2023/08/20 01:23:45;;;;;;;13.30;11.90;;;;;;;;;;110194;267;38476;-37
2023/08/20 01:27:02;;;;;;;12.90;11.70;;;;;;;;;;110203;267;39689;-37
2023/08/20 01:29:40;;;;;;;13.10;11.80;;;;;;;;;;110163;267;48280;-36
2023/08/20 01:32:24;;;;;;;12.90;11.70;;;;;;;;;;110215;267;41844;-37
2023/08/20 01:35:01;;;;;;;13.10;11.80;;;;;;;;;;110147;267;38405;-37
2023/08/20 01:37:40;;;;;;;12.80;11.70;;;;;;;;;;110051;267;192896;-37
2023/08/20 01:40:16;;;;;;;13.20;12.00;;;;;;;;;;110178;267;42567;-37
2023/08/20 01:42:54;;;;;;;13.20;12.00;;;;;;;;;;110203;267;42208;-40
2023/08/20 01:45:30;;;;;;;13.00;11.80;;;;;;;;;;110198;267;39171;-39
2023/08/20 01:48:19;;;;;;;12.80;11.60;;;;;;;;;;110147;267;40781;-40
2023/08/20 01:50:58;;;;;;;12.90;11.70;;;;;;;;;;110209;267;42944;-40
2023/08/20 01:53:37;;;;;;;13.20;11.90;;;;;;;;;;110177;267;42385;-40
2023/08/20 01:56:18;;;;;;;13.00;11.70;;;;;;;;;;110203;267;38765;-40
2023/08/20 01:58:54;;;;;;;13.80;12.20;;;;;;;;;;110140;267;39579;-40
2023/08/20 02:01:34;;;;;;;13.60;12.20;;;;;;;;;;110201;267;42896;-40
2023/08/20 02:04:19;;;;;;;13.20;12.00;;;;;;;;;;110205;267;42199;-40
2023/08/20 02:06:54;;;;;;;13.40;11.80;;;;;;;;;;110216;267;39178;-40
2023/08/20 02:09:36;;;;;;;13.70;12.40;;;;;;;;;;110164;267;39705;-40
2023/08/20 02:12:14;;;;;;;12.70;11.50;;;;;;;;;;110196;267;42965;-40
2023/08/20 02:14:54;;;;;;;13.30;12.00;;;;;;;;;;110184;267;42381;-39
2023/08/20 02:17:35;;;;;;;13.10;11.90;;;;;;;;;;110225;267;38940;-40
2023/08/20 02:20:20;;;;;;;12.50;11.40;;;;;;;;;;110148;267;39317;-39
2023/08/20 02:23:00;;;;;;;13.10;11.90;;;;;;;;;;110210;267;42684;-40
2023/08/20 02:25:42;;;;;;;13.40;12.00;;;;;;;;;;110050;267;195256;-39
2023/08/20 02:28:23;;;;;;;13.30;12.10;;;;;;;;;;110227;267;38627;-39
2023/08/20 02:30:59;;;;;;;13.40;11.80;;;;;;;;;;110149;267;45430;-40
2023/08/20 02:33:40;;;;;;;13.80;12.50;;;;;;;;;;110226;267;42525;-40
2023/08/20 02:36:19;;;;;;;13.20;11.80;;;;;;;;;;110184;267;43155;-39
2023/08/20 02:39:02;;;;;;;13.30;12.00;;;;;;;;;;110188;267;38900;-41
2023/08/20 02:41:44;;;;;;;13.30;11.90;;;;;;;;;;110190;267;46106;-40
2023/08/20 02:44:29;;;;;;;12.70;11.50;;;;;;;;;;110180;267;44266;-38
2023/08/20 02:47:08;;;;;;;13.00;11.70;;;;;;;;;;110197;267;43226;-39
2023/08/20 02:49:51;;;;;;;13.30;12.00;;;;;;;;;;110137;267;38752;-39
2023/08/20 02:52:41;;;;;;;12.80;11.70;;;;;;;;;;110232;267;39600;-39
2023/08/20 02:55:20;;;;;;;13.30;12.10;;;;;;;;;;110202;267;42856;-40
2023/08/20 02:58:00;;;;;;;;;;;;;;;;;;110242;267;42253;-40
2023/08/20 03:00:53;;;;;;;13.40;12.20;;;;;;;;;;110208;267;38472;-40
2023/08/20 03:03:37;;;;;;;13.20;12.00;;;;;;;;;;110152;267;192740;-41
2023/08/20 03:06:22;;;;;;;;;;;;;;;;;;110219;267;42477;-41
2023/08/20 03:09:06;;;;;;;13.10;11.90;;;;;;;;;;110226;267;42666;-39
2023/08/20 03:11:43;;;;;;;12.70;11.40;;;;;;;;;;110155;265;38629;-40
2023/08/20 03:14:26;;;;;;;13.40;12.10;;;;;;;;;;110197;267;40722;-39
2023/08/20 03:17:06;;;;;;;12.60;11.40;;;;;;;;;;110161;267;43977;-40
2023/08/20 03:20:01;;;;;;;12.30;11.00;;;;;;;;;;110201;267;43021;-39
2023/08/20 03:22:45;;;;;;;11.30;10.30;;;;;;;;;;110152;267;44549;-40
2023/08/20 03:25:25;;;;;;;11.60;10.50;;;;;;;;;;110192;267;39480;-40
2023/08/20 03:28:04;;;;;;;11.40;10.40;;;;;;;;;;110205;267;42779;-39
2023/08/20 03:30:45;;;;;;;12.40;11.20;;;;;;;;;;110173;267;42218;-39
2023/08/20 03:33:24;;;;;;;12.00;10.90;;;;;;;;;;110192;267;39031;-39
2023/08/20 03:36:11;;;;;;;12.50;11.30;;;;;;;;;;110095;267;175464;-40
2023/08/20 03:38:54;;;;;;;12.60;11.40;;;;;;;;;;110173;267;42892;-39
2023/08/20 03:41:29;;;;;;;12.60;11.40;;;;;;;;;;110168;267;42234;-39
2023/08/20 03:44:12;;;;;;;13.40;12.10;;;;;;;;;;110206;267;38828;-39
2023/08/20 03:46:55;;;;;;;12.70;11.60;;;;;;;;;;110213;267;39334;-39
2023/08/20 03:49:41;;;;;;;12.70;11.60;;;;;;;;;;110177;267;43178;-39
2023/08/20 03:52:22;;;;;;;13.40;12.20;;;;;;;;;;110143;267;42213;-39
2023/08/20 03:55:03;;;;;;;13.60;12.40;;;;;;;;;;110200;267;38625;-39
2023/08/20 03:57:40;;;;;;;12.90;11.70;;;;;;;;;;110207;267;39559;-39
2023/08/20 04:00:21;;;;;;;13.20;11.90;;;;;;;;;;110200;267;42777;-39
2023/08/20 04:03:06;;;;;;;13.70;12.30;;;;;;;;;;110123;267;43198;-39
2023/08/20 04:05:46;;;;;;;13.70;12.40;;;;;;;;;;110178;267;38767;-39
2023/08/20 04:08:24;;;;;;;13.80;12.60;;;;;;;;;;110180;267;39648;-39
2023/08/20 04:11:03;;;;;;;13.50;12.40;;;;;;;;;;110205;267;44225;-39
2023/08/20 04:13:43;;;;;;;13.50;12.30;;;;;;;;;;110195;260;42115;-40
2023/08/20 04:16:22;;;;;;;13.80;12.50;;;;;;;;;;110211;267;39093;-39
2023/08/20 04:19:04;;;;;;;13.60;12.40;;;;;;;;;;110206;267;39462;-39
2023/08/20 04:21:43;;;;;;;13.70;12.40;;;;;;;;;;110201;267;42596;-39
2023/08/20 04:24:28;;;;;;;13.50;12.40;;;;;;;;;;110219;267;41780;-39
2023/08/20 04:27:04;;;;;;;14.30;12.90;;;;;;;;;;110223;267;38659;-39
2023/08/20 04:29:41;;;;;;;13.70;12.40;;;;;;;;;;110219;267;39758;-39
2023/08/20 04:32:26;;;;;;;14.30;13.00;;;;;;;;;;110159;267;42809;-39
2023/08/20 04:35:16;;;;;;;14.00;12.80;;;;;;;;;;110180;267;42116;-39
2023/08/20 04:37:53;;;;;;;14.30;13.10;;;;;;;;;;110205;267;38423;-40
2023/08/20 04:40:35;;;;;;;14.40;13.20;;;;;;;;;;110194;267;39535;-39
2023/08/20 04:43:16;;;;;;;14.80;13.40;;;;;;;;;;110165;267;43976;-39
2023/08/20 04:45:56;;;;;;;14.20;12.90;;;;;;;;;;110208;267;42091;-39
2023/08/20 04:48:39;;;;;;;13.80;12.60;;;;;;;;;;110095;267;192900;-39
2023/08/20 04:51:24;;;;;;;14.70;13.40;;;;;;;;;;110203;267;40035;-40
2023/08/20 04:54:01;;;;;;;14.50;13.10;;;;;;;;;;110182;267;42908;-39
2023/08/20 04:56:39;;;;;;;14.70;13.40;;;;;;;;;;110200;267;41961;-39
2023/08/20 04:59:16;;;;;;;14.50;13.20;;;;;;;;;;110195;267;39738;-39
2023/08/20 05:01:52;;;;;;;14.60;13.20;;;;;;;;;;110077;267;175451;-39
2023/08/20 05:04:31;;;;;;;14.10;12.90;;;;;;;;;;110172;267;42951;-39
2023/08/20 05:07:14;;;;;;;13.80;12.60;;;;;;;;;;110087;267;175470;-40
2023/08/20 05:09:53;;;;;;;14.20;12.70;;;;;;;;;;110181;267;39100;-39
2023/08/20 05:12:29;;;;;;;14.20;12.90;;;;;;;;;;110179;267;39247;-40
2023/08/20 05:15:08;;;;;;;14.50;13.20;;;;;;;;;;110188;267;42726;-38
2023/08/20 05:17:47;;;;;;;13.90;12.70;;;;;;;;;;110212;267;42737;-39
2023/08/20 05:20:27;;;;;;;14.10;12.80;;;;;;;;;;110063;267;175429;-39
2023/08/20 05:23:01;;;;;;;13.90;12.70;;;;;;;;;;110110;267;40381;-39
2023/08/20 05:25:34;;;;;;;13.90;12.60;;;;;;;;;;110222;267;44031;-39
2023/08/20 05:28:10;;;;;;;14.20;12.90;;;;;;;;;;110194;267;42198;-39
2023/08/20 05:30:53;;;;;;;15.20;13.70;;;;;;;;;;110207;267;38706;-39
2023/08/20 05:33:34;;;;;;;15.60;14.20;;;;;;;;;;110140;267;39462;-39
2023/08/20 05:36:09;;;;;;;15.40;14.00;;;;;;;;;;110250;267;42683;-39
2023/08/20 05:38:52;;;;;;;16.10;14.70;;;;;;;;;;110231;267;42247;-38
2023/08/20 05:41:29;;;;;;;16.30;15.00;;;;;;;;;;110199;267;38839;-39
2023/08/20 05:44:12;;;;;;;16.00;14.60;;;;;;;;;;110182;267;39651;-39
2023/08/20 05:46:52;;;;;;;17.10;15.50;;;;;;;;;;110208;267;42782;-39
2023/08/20 05:49:32;;;;;;;16.60;15.10;;;;;;;;;;110218;267;42404;-40
2023/08/20 05:52:12;;;;;;;17.00;15.50;;;;;;;;;;110205;267;38786;-39
2023/08/20 05:54:55;;;;;;;16.80;15.30;;;;;;;;;;110159;267;39511;-39
2023/08/20 05:57:37;;;;;;;16.40;15.00;;;;;;;;;;110222;267;42777;-39
2023/08/20 06:00:20;;;;;;;;;;;;;;;;;;110224;267;42084;-39
2023/08/20 06:03:07;;;;;;;16.60;15.20;;;;;;;;;;110177;267;38813;-39
2023/08/20 06:05:52;;;;;;;18.70;17.10;;;;;;;;;;110154;267;41839;-39
2023/08/20 06:08:28;;;;;;;20.50;18.80;;;;;;;;;;110193;267;42490;-39
2023/08/20 06:11:09;;;;;;;20.30;18.50;;;;;;;;;;110183;267;42230;-39
2023/08/20 06:13:46;;;;;;;18.80;17.20;;;;;;;;;;110197;267;38665;-40
2023/08/20 06:16:20;;;;;;;20.20;18.50;;;;;;;;;;110230;267;46020;-39
2023/08/20 06:18:55;;;;;;;20.50;18.80;;;;;;;;;;110223;267;43005;-39
2023/08/20 06:21:32;;;;;;;20.90;19.20;;;;;;;;;;110214;267;43468;-39
2023/08/20 06:24:10;;;;;;;21.50;19.60;;;;;;;;;;110189;267;38851;-39
2023/08/20 06:26:45;;;;;;;21.10;19.40;;;;;;;;;;110210;267;39826;-39
2023/08/20 06:29:21;;;;;;;20.40;18.80;;;;;;;;;;110263;267;42538;-39
2023/08/20 06:31:56;;;;;;;20.30;18.60;;;;;;;;;;110169;267;44311;-39
2023/08/20 06:34:32;;;;;;;24.20;22.20;;;;;;;;;;110188;267;38709;-39
2023/08/20 06:37:07;;;;;;;23.80;21.80;;;;;;;;;;110189;267;39341;-39
2023/08/20 06:39:42;;;;;;;23.70;21.80;;;;;;;;;;109942;267;334775;-38
2023/08/20 06:42:17;;;;;;;22.70;20.80;;;;;;;;;;110184;267;43213;-39
2023/08/20 06:44:52;;;;;;;23.00;21.10;;;;;;;;;;110171;267;38680;-39
2023/08/20 06:47:29;;;;;;;21.20;19.40;;;;;;;;;;110243;267;39265;-39
2023/08/20 06:50:07;;;;;;;23.50;21.60;;;;;;;;;;110194;267;42853;-39
2023/08/20 06:52:43;;;;;;;22.90;21.00;;;;;;;;;;110167;267;42268;-39
2023/08/20 06:55:19;;;;;;;22.50;20.60;;;;;;;;;;110163;267;39791;-39
2023/08/20 06:57:58;;;;;;;21.80;20.00;;;;;;;;;;110210;267;39287;-41
2023/08/20 07:00:37;;;;;;;20.50;18.80;;;;;;;;;;110171;267;42949;-39
2023/08/20 07:03:17;;;;;;;22.60;20.70;;;;;;;;;;110197;267;42114;-40
2023/08/20 07:05:52;;;;;;;21.90;20.10;;;;;;;;;;110130;267;38737;-39
2023/08/20 07:08:31;;;;;;;21.30;19.50;;;;;;;;;;110223;267;39705;-39
2023/08/20 07:11:07;;;;;;;20.60;18.90;;;;;;;;;;110163;267;42484;-39
2023/08/20 07:13:44;;;;;;;20.60;18.90;;;;;;;;;;110181;267;42094;-40
2023/08/20 07:16:24;;;;;;;20.10;18.50;;;;;;;;;;110047;267;192746;-39
2023/08/20 07:19:01;;;;;;;19.20;17.70;;;;;;;;;;110203;267;39598;-41
2023/08/20 07:21:37;;;;;;;19.80;18.10;;;;;;;;;;110202;267;42839;-39
2023/08/20 07:24:11;;;;;;;19.80;18.20;;;;;;;;;;110223;267;41841;-39
2023/08/20 07:26:48;;;;;;;19.60;17.90;;;;;;;;;;110148;267;38884;-39
2023/08/20 07:29:25;;;;;;;18.40;16.90;;;;;;;;;;110190;267;40885;-39
2023/08/20 07:32:04;;;;;;;19.00;17.40;;;;;;;;;;110214;267;42993;-39
2023/08/20 07:34:40;;;;;;;19.50;17.90;;;;;;;;;;110087;267;175412;-39
2023/08/20 07:37:15;;;;;;;20.70;19.00;;;;;;;;;;110168;267;40306;-39
2023/08/20 07:39:53;;;;;;;19.90;18.20;;;;;;;;;;110233;267;39538;-40
2023/08/20 07:42:30;;;;;;;20.10;18.50;;;;;;;;;;110206;267;43147;-39
2023/08/20 07:45:08;;;;;;;18.80;17.30;;;;;;;;;;110226;267;42180;-40
2023/08/20 07:47:48;;;;;;;19.10;17.60;;;;;;;;;;110197;267;40253;-39
2023/08/20 07:50:28;;;;;;;19.00;17.50;;;;;;;;;;110210;267;39627;-39
2023/08/20 07:53:01;;;;;;;19.30;17.70;;;;;;;;;;110216;267;44190;-40
2023/08/20 07:55:36;;;;;;;18.40;16.90;;;;;;;;;;110182;267;41827;-40
2023/08/20 07:58:13;;;;;;;18.70;17.20;;;;;;;;;;110230;267;175409;-40
2023/08/20 08:00:49;;;;;;;20.30;18.50;;;;;;;;;;110205;267;40623;-40
2023/08/20 08:03:27;;;;;;;18.00;16.50;;;;;;;;;;110200;267;43103;-39
2023/08/20 08:06:07;;;;;;;17.60;16.20;;;;;;;;;;110176;267;42229;-39
2023/08/20 08:08:49;;;;;;;18.50;17.00;;;;;;;;;;110234;267;44937;-40
2023/08/20 08:11:26;;;;;;;19.20;17.70;;;;;;;;;;110204;267;41718;-39
2023/08/20 08:14:00;;;;;;;18.60;17.10;;;;;;;;;;110227;267;42796;-40
2023/08/20 08:16:36;;;;;;;18.70;17.20;;;;;;;;;;110166;267;42219;-40
2023/08/20 08:19:17;;;;;;;19.10;17.60;;;;;;;;;;110193;267;38706;-40
2023/08/20 08:21:56;;;;;;;18.60;17.00;;;;;;;;;;110204;267;39328;-40
2023/08/20 08:24:30;;;;;;;18.80;17.20;;;;;;;;;;110209;267;43152;-40
2023/08/20 08:27:05;;;;;;;18.50;17.00;;;;;;;;;;110171;267;44259;-40
2023/08/20 08:29:42;;;;;;;18.60;17.00;;;;;;;;;;110270;267;38834;-40
2023/08/20 08:32:16;;;;;;;18.60;17.00;;;;;;;;;;110258;267;40948;-40
2023/08/20 08:34:49;;;;;;;18.70;17.20;;;;;;;;;;110172;267;44129;-39
2023/08/20 08:37:26;;;;;;;18.40;16.90;;;;;;;;;;110194;267;42367;-40
2023/08/20 08:40:05;;;;;;;17.50;16.10;;;;;;;;;;110122;267;175405;-40
2023/08/20 08:42:40;;;;;;;17.80;16.40;;;;;;;;;;110261;267;39594;-39
2023/08/20 08:45:23;;;;;;;18.40;16.90;;;;;;;;;;110212;267;42771;-39
2023/08/20 08:47:59;;;;;;;18.70;17.10;;;;;;;;;;110191;267;43446;-41
2023/08/20 08:50:36;;;;;;;17.60;16.20;;;;;;;;;;110228;267;38926;-40
2023/08/20 08:53:10;;;;;;;18.20;16.70;;;;;;;;;;110198;267;39735;-40
2023/08/20 08:55:48;;;;;;;18.20;16.80;;;;;;;;;;110211;267;44039;-40
2023/08/20 08:58:21;;;;;;;17.30;15.90;;;;;;;;;;110190;267;41826;-35
2023/08/20 09:00:57;;;;;;;18.00;16.50;;;;;;;;;;110210;267;38408;-35
2023/08/20 09:03:32;;;;;;;18.10;16.70;;;;;;;;;;110205;267;39303;-35
2023/08/20 09:06:14;;;;;;;16.40;15.10;;;;;;;;;;110113;267;175398;-35
2023/08/20 09:08:47;;;;;;;17.60;16.20;;;;;;;;;;110184;267;42222;-35
2023/08/20 09:11:22;;;;;;;16.10;14.80;;;;;;;;;;110195;267;38682;-35
2023/08/20 09:14:02;;;;;;;15.60;14.30;;;;;;;;;;110220;267;39751;-35
2023/08/20 09:16:38;;;;;;;15.90;14.50;;;;;;;;;;110201;267;42818;-35
2023/08/20 09:19:14;;;;;;;16.20;14.90;;;;;;;;;;110166;267;42011;-35
2023/08/20 09:21:55;;;;;;;16.40;15.00;;;;;;;;;;110163;267;39009;-35
2023/08/20 09:24:43;;;;;;;15.90;14.60;;;;;;;;;;110203;267;39615;-35
2023/08/20 09:27:24;;;;;;;16.20;14.80;;;;;;;;;;110178;267;42743;-35
2023/08/20 09:30:05;;;;;;;17.00;15.60;;;;;;;;;;110174;267;43306;-35
2023/08/20 09:32:44;;;;;;;16.80;15.30;;;;;;;;;;110211;267;38935;-35
2023/08/20 09:35:28;;;;;;;16.40;15.00;;;;;;;;;;110238;267;39730;-35
2023/08/20 09:38:11;;;;;;;16.40;15.00;;;;;;;;;;110183;267;42758;-36
2023/08/20 09:40:52;;;;;;;17.30;15.70;;;;;;;;;;110137;267;48710;-35
2023/08/20 09:43:28;;;;;;;16.50;15.20;;;;;;;;;;110246;267;38667;-35
2023/08/20 09:46:11;;;;;;;17.40;15.90;;;;;;;;;;110186;267;39342;-35
2023/08/20 09:48:57;;;;;;;17.10;15.60;;;;;;;;;;110184;267;43300;-35
2023/08/20 09:51:39;;;;;;;16.60;15.20;;;;;;;;;;110168;267;43236;-35
2023/08/20 09:54:23;;;;;;;17.10;15.70;;;;;;;;;;110197;267;39935;-35
2023/08/20 09:57:02;;;;;;;17.50;16.00;;;;;;;;;;110193;267;39750;-35
2023/08/20 09:59:37;;;;;;;17.30;15.90;;;;;;;;;;110210;267;42546;-36
2023/08/20 10:02:18;;;;;;;17.00;15.60;;;;;;;;;;110207;267;42255;-35
2023/08/20 10:04:54;;;;;;;16.60;15.20;;;;;;;;;;110088;267;175405;-35
2023/08/20 10:07:40;;;;;;;17.40;15.90;;;;;;;;;;110198;267;40766;-35
2023/08/20 10:10:18;;;;;;;16.80;15.40;;;;;;;;;;110147;265;42829;-35
2023/08/20 10:12:59;;;;;;;16.70;15.40;;;;;;;;;;110216;267;41860;-35
2023/08/20 10:15:42;;;;;;;16.60;15.20;;;;;;;;;;110216;267;38696;-35
2023/08/20 10:18:28;;;;;;;16.60;15.20;;;;;;;;;;110092;267;175012;-35
2023/08/20 10:21:12;;;;;;;16.30;15.00;;;;;;;;;;110151;267;42769;-35
2023/08/20 10:23:56;;;;;;;16.10;14.80;;;;;;;;;;110214;267;42093;-35
2023/08/20 10:26:32;;;;;;;15.70;14.40;;;;;;;;;;110153;267;40089;-35
2023/08/20 10:29:44;;;;;;;16.80;15.30;;;;;;;;;;110194;267;39586;-35
2023/08/20 10:32:46;;;;;;;15.80;14.50;;;;;;;;;;110261;267;48910;-35
2023/08/20 10:35:29;;;;;;;16.00;14.70;;;;;;;;;;110158;267;43248;-35
2023/08/20 10:38:12;;;;;;;15.40;14.20;;;;;;;;;;110183;267;38700;-35
2023/08/20 10:40:57;;;;;;;15.90;14.60;;;;;;;;;;110069;267;175354;-35
2023/08/20 10:43:40;;;;;;;15.70;14.40;;;;;;;;;;110179;267;43891;-35
2023/08/20 10:46:19;;;;;;;15.00;13.70;;;;;;;;;;110177;267;41859;-35
2023/08/20 10:48:58;;;;;;;15.90;14.50;;;;;;;;;;110238;267;38687;-35
2023/08/20 10:51:35;;;;;;;15.40;14.00;;;;;;;;;;110148;267;39604;-35
2023/08/20 10:54:13;;;;;;;14.80;13.60;;;;;;;;;;110187;267;42802;-35
2023/08/20 10:56:56;;;;;;;15.20;13.90;;;;;;;;;;110171;267;42120;-35
2023/08/20 10:59:42;;;;;;;14.50;13.20;;;;;;;;;;110098;267;175370;-35
2023/08/20 11:02:23;;;;;;;14.70;13.50;;;;;;;;;;110171;267;39275;-35
2023/08/20 11:05:01;;;;;;;14.60;13.40;;;;;;;;;;110198;267;42614;-35
2023/08/20 11:07:42;;;;;;;14.90;13.70;;;;;;;;;;110182;267;42051;-35
2023/08/20 11:10:22;;;;;;;14.60;13.40;;;;;;;;;;110176;267;38493;-40
2023/08/20 11:13:05;;;;;;;14.80;13.60;;;;;;;;;;110147;267;39681;-35
2023/08/20 11:15:43;;;;;;;14.30;13.10;;;;;;;;;;110168;267;42776;-35
2023/08/20 11:18:30;;;;;;;14.40;13.20;;;;;;;;;;110199;267;42422;-35
2023/08/20 11:21:08;;;;;;;14.50;13.30;;;;;;;;;;110147;267;38648;-35
2023/08/20 11:23:46;;;;;;;14.10;13.00;;;;;;;;;;110183;267;39590;-35
2023/08/20 11:26:30;;;;;;;15.00;13.80;;;;;;;;;;110145;267;42478;-36
2023/08/20 11:29:10;;;;;;;14.80;13.60;;;;;;;;;;110162;267;42079;-35
2023/08/20 11:31:45;;;;;;;14.90;13.60;;;;;;;;;;110188;267;38439;-35
2023/08/20 11:34:20;;;;;;;15.20;14.00;;;;;;;;;;110202;267;39715;-35
2023/08/20 11:36:56;;;;;;;14.80;13.60;;;;;;;;;;110177;267;42789;-35
2023/08/20 11:39:32;;;;;;;14.70;13.50;;;;;;;;;;110227;267;41971;-35
2023/08/20 11:42:12;;;;;;;15.80;14.50;;;;;;;;;;110178;267;38703;-35
2023/08/20 11:44:51;;;;;;;16.50;15.10;;;;;;;;;;110184;267;39493;-35
2023/08/20 11:47:24;;;;;;;17.40;16.00;;;;;;;;;;110073;267;175342;-35
2023/08/20 11:50:18;;;;;;;16.90;15.50;;;;;;;;;;110191;267;41860;-35
2023/08/20 11:52:56;;;;;;;16.20;14.90;;;;;;;;;;110157;267;38546;-35
2023/08/20 11:55:36;;;;;;;16.80;15.40;;;;;;;;;;110157;267;39255;-35
2023/08/20 11:58:15;;;;;;;17.20;15.70;;;;;;;;;;110191;267;43898;-35
2023/08/20 12:00:57;;;;;;;17.20;15.80;;;;;;;;;;110188;267;42242;-35
2023/08/20 12:03:39;;;;;;;18.80;17.30;;;;;;;;;;110165;267;38753;-35
2023/08/20 12:06:30;;;;;;;18.60;17.10;;;;;;;;;;110180;267;39559;-35
2023/08/20 12:09:21;;;;;;;17.90;16.50;;;;;;;;;;110192;267;42951;-36
2023/08/20 12:12:01;;;;;;;18.10;16.60;;;;;;;;;;110174;267;42115;-35
2023/08/20 12:14:42;;;;;;;18.00;16.50;;;;;;;;;;110153;267;44808;-35
2023/08/20 12:17:20;;;;;;;17.90;16.50;;;;;;;;;;110179;267;39717;-35
2023/08/20 12:19:59;;;;;;;19.70;18.20;;;;;;;;;;110190;267;42497;-35
2023/08/20 12:22:38;;;;;;;20.50;18.90;;;;;;;;;;110160;267;42094;-35
2023/08/20 12:25:15;;;;;;;20.00;18.40;;;;;;;;;;110186;267;40017;-35
2023/08/20 12:27:56;;;;;;;18.90;17.40;;;;;;;;;;110058;267;175401;-35
2023/08/20 12:30:40;;;;;;;19.30;17.80;;;;;;;;;;110197;267;42947;-35
2023/08/20 12:33:16;;;;;;;20.00;18.40;;;;;;;;;;109463;267;890534;-35
2023/08/20 12:35:54;;;;;;;19.90;18.30;;;;;;;;;;110144;267;38671;-35
2023/08/20 12:38:33;;;;;;;19.60;18.10;;;;;;;;;;110180;267;39581;-35
2023/08/20 12:41:09;;;;;;;17.70;16.10;;;;;;;;;;110176;267;42807;-35
2023/08/20 12:43:43;;;;;;;17.50;16.00;;;;;;;;;;110166;267;43138;-35
2023/08/20 12:46:19;;;;;;;16.30;15.00;;;;;;;;;;110205;267;38702;-35
2023/08/20 12:48:55;;;;;;;15.80;14.50;;;;;;;;;;110225;267;39299;-35
2023/08/20 12:51:28;;;;;;;16.20;14.90;;;;;;;;;;110245;267;44212;-35
2023/08/20 12:54:05;;;;;;;15.80;14.50;;;;;;;;;;110185;267;42070;-35
2023/08/20 12:56:40;;;;;;;15.60;14.40;;;;;;;;;;110244;267;38814;-35
2023/08/20 12:59:20;;;;;;;15.90;14.60;;;;;;;;;;110186;267;40567;-35
2023/08/20 13:01:53;;;;;;;15.80;14.50;;;;;;;;;;110236;267;42907;-35
2023/08/20 13:04:41;;;;;;;15.40;14.10;;;;;;;;;;110140;267;42073;-35
2023/08/20 13:07:26;;;;;;;15.20;14.00;;;;;;;;;;110187;267;38526;-35
2023/08/20 13:10:16;;;;;;;14.20;13.00;;;;;;;;;;110211;267;39527;-35
2023/08/20 13:12:57;;;;;;;14.60;13.50;;;;;;;;;;110206;267;42751;-35
2023/08/20 13:15:37;;;;;;;14.60;13.50;;;;;;;;;;110197;267;44286;-36
2023/08/20 13:18:19;;;;;;;14.90;13.60;;;;;;;;;;110242;267;38697;-35
2023/08/20 13:20:53;;;;;;;21.40;19.30;;;;;;;;;;110194;267;39654;-35
2023/08/20 13:23:29;;;;;;;18.60;16.90;;;;;;;;;;110210;267;42821;-35
2023/08/20 13:26:06;;;;;;;22.40;20.30;;;;;;;;;;110223;267;48551;-35
2023/08/20 13:28:48;;;;;;;21.00;19.10;;;;;;;;;;110144;267;38456;-35
2023/08/20 13:31:23;;;;;;;19.00;17.30;;;;;;;;;;110204;267;40432;-35
2023/08/20 13:34:02;;;;;;;19.10;17.40;;;;;;;;;;110185;267;42903;-35
2023/08/20 13:36:36;;;;;;;18.30;16.80;;;;;;;;;;110238;267;42135;-35
2023/08/20 13:39:16;;;;;;;18.30;16.80;;;;;;;;;;110221;267;38683;-35
2023/08/20 13:41:53;;;;;;;18.00;16.50;;;;;;;;;;110212;267;39867;-35
2023/08/20 13:44:30;;;;;;;17.40;15.90;;;;;;;;;;110195;267;42525;-35
2023/08/20 13:47:12;;;;;;;17.10;15.70;;;;;;;;;;110204;267;42239;-35
2023/08/20 13:49:47;;;;;;;17.70;16.20;;;;;;;;;;110168;267;38792;-35
2023/08/20 13:52:25;;;;;;;17.70;16.30;;;;;;;;;;110191;267;39526;-35
2023/08/20 13:55:06;;;;;;;17.10;15.70;;;;;;;;;;110190;267;42771;-35
2023/08/20 13:57:42;;;;;;;18.10;16.60;;;;;;;;;;110172;267;42061;-35
2023/08/20 14:00:20;;;;;;;19.00;17.50;;;;;;;;;;110192;267;39829;-35
2023/08/20 14:02:55;;;;;;;18.50;17.00;;;;;;;;;;110198;267;39603;-35
2023/08/20 14:05:30;;;;;;;18.60;17.10;;;;;;;;;;110167;267;42994;-36
2023/08/20 14:08:06;;;;;;;17.90;16.50;;;;;;;;;;110221;267;41969;-35
2023/08/20 14:10:41;;;;;;;17.50;16.20;;;;;;;;;;110198;267;38664;-35
2023/08/20 14:13:17;;;;;;;17.50;16.10;;;;;;;;;;110163;267;39515;-35
2023/08/20 14:15:52;;;;;;;18.00;16.50;;;;;;;;;;110197;267;42773;-35
2023/08/20 14:18:26;;;;;;;18.10;16.60;;;;;;;;;;110185;267;42140;-35
2023/08/20 14:20:59;;;;;;;18.10;16.70;;;;;;;;;;110257;267;39899;-35
2023/08/20 14:23:38;;;;;;;17.10;15.80;;;;;;;;;;110221;267;41089;-35
2023/08/20 14:26:12;;;;;;;17.00;15.70;;;;;;;;;;110181;267;42524;-35
2023/08/20 14:28:47;;;;;;;16.70;15.30;;;;;;;;;;110232;267;42017;-36
2023/08/20 14:31:25;;;;;;;16.70;15.40;;;;;;;;;;110206;267;38766;-35
2023/08/20 14:34:00;;;;;;;17.00;15.60;;;;;;;;;;110219;267;39261;-35
2023/08/20 14:36:34;;;;;;;16.20;14.90;;;;;;;;;;110171;267;43781;-35
2023/08/20 14:39:10;;;;;;;15.90;14.70;;;;;;;;;;110199;267;42053;-35
2023/08/20 14:41:46;;;;;;;16.30;14.90;;;;;;;;;;109935;267;39008;-35
2023/08/20 14:44:20;;;;;;;15.70;14.50;;;;;;;;;;110077;267;174889;-47
2023/08/20 14:46:58;;;;;;;15.80;14.50;;;;;;;;;;110161;267;42831;-35
2023/08/20 14:49:35;;;;;;;15.50;14.30;;;;;;;;;;110220;267;42048;-35
2023/08/20 14:52:12;;;;;;;15.10;13.90;;;;;;;;;;110231;267;38420;-35
2023/08/20 14:54:56;;;;;;;15.60;14.40;;;;;;;;;;110195;267;39695;-36
2023/08/20 14:57:31;;;;;;;15.40;14.20;;;;;;;;;;110225;267;43823;-35
2023/08/20 15:00:23;;;;;;;14.60;13.40;;;;;;;;;;110190;267;42125;-35
2023/08/20 15:02:57;;;;;;;15.00;13.70;;;;;;;;;;110218;267;38699;-35
2023/08/20 15:05:31;;;;;;;14.60;13.40;;;;;;;;;;110197;267;39509;-35
2023/08/20 15:08:06;;;;;;;15.20;14.00;;;;;;;;;;110215;267;42776;-35
2023/08/20 15:10:39;;;;;;;15.10;13.80;;;;;;;;;;110214;267;42248;-35
2023/08/20 15:13:15;;;;;;;14.80;13.60;;;;;;;;;;110209;267;40087;-35
2023/08/20 15:15:56;;;;;;;14.60;13.40;;;;;;;;;;110186;267;39367;-35
2023/08/20 15:18:30;;;;;;;14.40;13.20;;;;;;;;;;110089;267;201909;-35
2023/08/20 15:21:05;;;;;;;14.30;13.10;;;;;;;;;;110204;267;41820;-35
2023/08/20 15:23:39;;;;;;;14.00;12.90;;;;;;;;;;110246;267;39182;-35
2023/08/20 15:26:12;;;;;;;14.30;13.20;;;;;;;;;;110192;267;39572;-35
2023/08/20 15:28:46;;;;;;;14.00;12.80;;;;;;;;;;110174;267;50236;-35
2023/08/20 15:31:19;;;;;;;13.90;12.70;;;;;;;;;;110196;267;43216;-36